sensor_id;sensor_type;location;lat;lon;timestamp;P1;durP1;ratioP1;P2;durP2;ratioP2
1799;SDS011;919;48.274;12.292;2022-08-01T00:00:19;3.63;;;3.43;;
1799;SDS011;919;48.274;12.292;2022-08-01T00:02:46;4.03;;;3.73;;
1799;SDS011;919;48.274;12.292;2022-08-01T00:05:12;3.87;;;3.57;;
1799;SDS011;919;48.274;12.292;2022-08-01T00:07:39;3.43;;;3.23;;
1799;SDS011;919;48.274;12.292;2022-08-01T00:10:07;3.50;;;3.30;;
1799;SDS011;919;48.274;12.292;2022-08-01T00:12:35;3.80;;;3.60;;
1799;SDS011;919;48.274;12.292;2022-08-01T00:15:03;3.73;;;3.43;;
1799;SDS011;919;48.274;12.292;2022-08-01T00:17:32;3.77;;;3.47;;
1799;SDS011;919;48.274;12.292;2022-08-01T00:19:59;3.97;;;3.67;;
1799;SDS011;919;48.274;12.292;2022-08-01T00:22:27;4.10;;;3.63;;
1799;SDS011;919;48.274;12.292;2022-08-01T00:24:54;3.60;;;3.40;;
1799;SDS011;919;48.274;12.292;2022-08-01T00:27:20;3.73;;;3.50;;
1799;SDS011;919;48.274;12.292;2022-08-01T00:29:47;3.43;;;3.23;;
1799;SDS011;919;48.274;12.292;2022-08-01T00:32:14;4.93;;;3.33;;
1799;SDS011;919;48.274;12.292;2022-08-01T00:34:42;3.47;;;3.27;;
1799;SDS011;919;48.274;12.292;2022-08-01T00:37:09;3.37;;;3.07;;
1799;SDS011;919;48.274;12.292;2022-08-01T00:39:35;3.70;;;3.40;;
1799;SDS011;919;48.274;12.292;2022-08-01T00:42:05;3.53;;;3.23;;
1799;SDS011;919;48.274;12.292;2022-08-01T00:44:32;6.00;;;3.80;;
1799;SDS011;919;48.274;12.292;2022-08-01T00:46:59;3.73;;;3.43;;
1799;SDS011;919;48.274;12.292;2022-08-01T00:49:25;3.67;;;3.37;;
1799;SDS011;919;48.274;12.292;2022-08-01T00:51:54;3.87;;;3.60;;
1799;SDS011;919;48.274;12.292;2022-08-01T00:54:23;4.47;;;3.73;;
1799;SDS011;919;48.274;12.292;2022-08-01T00:56:50;6.30;;;4.20;;
1799;SDS011;919;48.274;12.292;2022-08-01T00:59:17;3.27;;;3.07;;
1799;SDS011;919;48.274;12.292;2022-08-01T01:01:46;4.20;;;3.87;;
1799;SDS011;919;48.274;12.292;2022-08-01T01:04:13;4.80;;;3.90;;
1799;SDS011;919;48.274;12.292;2022-08-01T01:06:41;3.57;;;3.27;;
1799;SDS011;919;48.274;12.292;2022-08-01T01:09:17;3.50;;;3.30;;
1799;SDS011;919;48.274;12.292;2022-08-01T01:11:53;4.27;;;3.87;;
1799;SDS011;919;48.274;12.292;2022-08-01T01:14:27;3.43;;;3.23;;
1799;SDS011;919;48.274;12.292;2022-08-01T01:17:03;3.80;;;3.50;;
1799;SDS011;919;48.274;12.292;2022-08-01T01:19:33;3.70;;;3.40;;
1799;SDS011;919;48.274;12.292;2022-08-01T01:22:18;3.77;;;3.57;;
1799;SDS011;919;48.274;12.292;2022-08-01T01:27:51;4.10;;;3.70;;
1799;SDS011;919;48.274;12.292;2022-08-01T01:30:29;4.30;;;3.90;;
1799;SDS011;919;48.274;12.292;2022-08-01T01:32:58;4.10;;;3.70;;
1799;SDS011;919;48.274;12.292;2022-08-01T01:35:29;3.47;;;3.27;;
1799;SDS011;919;48.274;12.292;2022-08-01T01:38:00;4.60;;;4.30;;
1799;SDS011;919;48.274;12.292;2022-08-01T01:40:30;3.77;;;3.50;;
1799;SDS011;919;48.274;12.292;2022-08-01T01:42:58;4.07;;;3.77;;
1799;SDS011;919;48.274;12.292;2022-08-01T01:45:26;6.10;;;3.80;;
1799;SDS011;919;48.274;12.292;2022-08-01T01:47:55;3.90;;;3.60;;
1799;SDS011;919;48.274;12.292;2022-08-01T01:50:24;3.87;;;3.57;;
1799;SDS011;919;48.274;12.292;2022-08-01T01:52:51;3.50;;;3.20;;
1799;SDS011;919;48.274;12.292;2022-08-01T01:55:19;4.40;;;4.00;;
1799;SDS011;919;48.274;12.292;2022-08-01T01:57:49;4.60;;;4.30;;
1799;SDS011;919;48.274;12.292;2022-08-01T02:00:17;4.53;;;3.67;;
1799;SDS011;919;48.274;12.292;2022-08-01T02:02:46;4.37;;;4.00;;
1799;SDS011;919;48.274;12.292;2022-08-01T02:05:13;4.57;;;4.27;;
1799;SDS011;919;48.274;12.292;2022-08-01T02:07:41;4.03;;;3.73;;
1799;SDS011;919;48.274;12.292;2022-08-01T02:10:09;5.00;;;4.60;;
1799;SDS011;919;48.274;12.292;2022-08-01T02:12:39;4.60;;;4.30;;
1799;SDS011;919;48.274;12.292;2022-08-01T02:15:08;4.10;;;3.80;;
1799;SDS011;919;48.274;12.292;2022-08-01T02:17:40;4.90;;;4.50;;
1799;SDS011;919;48.274;12.292;2022-08-01T02:20:10;3.73;;;3.43;;
1799;SDS011;919;48.274;12.292;2022-08-01T02:22:40;4.20;;;4.00;;
1799;SDS011;919;48.274;12.292;2022-08-01T02:25:11;3.40;;;3.20;;
1799;SDS011;919;48.274;12.292;2022-08-01T02:27:43;3.90;;;3.60;;
1799;SDS011;919;48.274;12.292;2022-08-01T02:30:16;3.97;;;3.67;;
1799;SDS011;919;48.274;12.292;2022-08-01T02:32:44;4.43;;;4.03;;
1799;SDS011;919;48.274;12.292;2022-08-01T02:35:17;3.97;;;3.67;;
1799;SDS011;919;48.274;12.292;2022-08-01T02:37:48;3.93;;;3.63;;
1799;SDS011;919;48.274;12.292;2022-08-01T02:40:15;4.63;;;4.00;;
1799;SDS011;919;48.274;12.292;2022-08-01T02:42:44;4.50;;;3.63;;
1799;SDS011;919;48.274;12.292;2022-08-01T02:45:16;4.73;;;4.40;;
1799;SDS011;919;48.274;12.292;2022-08-01T02:47:44;4.00;;;3.70;;
1799;SDS011;919;48.274;12.292;2022-08-01T02:50:15;4.37;;;3.93;;
1799;SDS011;919;48.274;12.292;2022-08-01T02:52:45;3.77;;;3.47;;
1799;SDS011;919;48.274;12.292;2022-08-01T02:55:14;4.30;;;4.00;;
1799;SDS011;919;48.274;12.292;2022-08-01T02:57:42;3.50;;;3.30;;
1799;SDS011;919;48.274;12.292;2022-08-01T03:00:12;3.30;;;3.10;;
1799;SDS011;919;48.274;12.292;2022-08-01T03:02:39;4.17;;;3.87;;
1799;SDS011;919;48.274;12.292;2022-08-01T03:05:07;4.60;;;4.20;;
1799;SDS011;919;48.274;12.292;2022-08-01T03:07:36;5.87;;;4.50;;
1799;SDS011;919;48.274;12.292;2022-08-01T03:10:04;5.23;;;4.83;;
1799;SDS011;919;48.274;12.292;2022-08-01T03:12:33;4.13;;;3.83;;
1799;SDS011;919;48.274;12.292;2022-08-01T03:15:00;5.13;;;4.73;;
1799;SDS011;919;48.274;12.292;2022-08-01T03:17:30;5.23;;;4.50;;
1799;SDS011;919;48.274;12.292;2022-08-01T03:19:58;4.50;;;4.17;;
1799;SDS011;919;48.274;12.292;2022-08-01T03:22:27;4.57;;;4.07;;
1799;SDS011;919;48.274;12.292;2022-08-01T03:24:57;4.20;;;3.90;;
1799;SDS011;919;48.274;12.292;2022-08-01T03:27:26;4.97;;;4.57;;
1799;SDS011;919;48.274;12.292;2022-08-01T03:29:54;4.20;;;3.90;;
1799;SDS011;919;48.274;12.292;2022-08-01T03:32:22;5.30;;;4.80;;
1799;SDS011;919;48.274;12.292;2022-08-01T03:34:50;4.83;;;4.37;;
1799;SDS011;919;48.274;12.292;2022-08-01T03:37:19;5.30;;;4.90;;
1799;SDS011;919;48.274;12.292;2022-08-01T03:39:52;5.83;;;5.43;;
1799;SDS011;919;48.274;12.292;2022-08-01T03:42:27;5.70;;;5.20;;
1799;SDS011;919;48.274;12.292;2022-08-01T03:44:59;4.07;;;3.77;;
1799;SDS011;919;48.274;12.292;2022-08-01T03:47:30;8.60;;;4.77;;
1799;SDS011;919;48.274;12.292;2022-08-01T03:49:58;5.40;;;4.10;;
1799;SDS011;919;48.274;12.292;2022-08-01T03:52:27;4.00;;;3.70;;
1799;SDS011;919;48.274;12.292;2022-08-01T03:54:56;3.83;;;3.53;;
1799;SDS011;919;48.274;12.292;2022-08-01T03:57:26;4.37;;;4.07;;
1799;SDS011;919;48.274;12.292;2022-08-01T03:59:55;4.03;;;3.73;;
1799;SDS011;919;48.274;12.292;2022-08-01T04:02:23;4.30;;;3.87;;
1799;SDS011;919;48.274;12.292;2022-08-01T04:04:50;4.43;;;4.13;;
1799;SDS011;919;48.274;12.292;2022-08-01T04:07:23;4.80;;;4.50;;
1799;SDS011;919;48.274;12.292;2022-08-01T04:09:51;5.93;;;4.20;;
1799;SDS011;919;48.274;12.292;2022-08-01T04:12:18;4.50;;;4.10;;
1799;SDS011;919;48.274;12.292;2022-08-01T04:14:47;7.00;;;2.90;;
1799;SDS011;919;48.274;12.292;2022-08-01T04:17:14;3.50;;;3.30;;
1799;SDS011;919;48.274;12.292;2022-08-01T04:19:42;3.20;;;3.00;;
1799;SDS011;919;48.274;12.292;2022-08-01T04:22:09;3.60;;;3.30;;
1799;SDS011;919;48.274;12.292;2022-08-01T04:24:37;3.60;;;3.30;;
1799;SDS011;919;48.274;12.292;2022-08-01T04:27:05;3.50;;;3.30;;
1799;SDS011;919;48.274;12.292;2022-08-01T04:29:35;2.97;;;2.77;;
1799;SDS011;919;48.274;12.292;2022-08-01T04:32:05;3.23;;;3.03;;
1799;SDS011;919;48.274;12.292;2022-08-01T04:34:34;3.30;;;3.00;;
1799;SDS011;919;48.274;12.292;2022-08-01T04:37:04;3.23;;;3.03;;
1799;SDS011;919;48.274;12.292;2022-08-01T04:39:35;4.00;;;3.50;;
1799;SDS011;919;48.274;12.292;2022-08-01T04:42:03;4.90;;;4.50;;
1799;SDS011;919;48.274;12.292;2022-08-01T04:44:31;5.90;;;4.17;;
1799;SDS011;919;48.274;12.292;2022-08-01T04:46:58;4.80;;;4.50;;
1799;SDS011;919;48.274;12.292;2022-08-01T04:49:27;5.80;;;5.17;;
1799;SDS011;919;48.274;12.292;2022-08-01T04:51:55;11.60;;;4.93;;
1799;SDS011;919;48.274;12.292;2022-08-01T04:54:25;5.10;;;4.50;;
1799;SDS011;919;48.274;12.292;2022-08-01T04:56:52;4.50;;;4.20;;
1799;SDS011;919;48.274;12.292;2022-08-01T04:59:20;4.50;;;4.20;;
1799;SDS011;919;48.274;12.292;2022-08-01T05:02:05;5.53;;;5.03;;
1799;SDS011;919;48.274;12.292;2022-08-01T05:04:34;4.57;;;4.17;;
1799;SDS011;919;48.274;12.292;2022-08-01T05:07:02;6.53;;;4.93;;
1799;SDS011;919;48.274;12.292;2022-08-01T05:09:29;6.17;;;5.67;;
1799;SDS011;919;48.274;12.292;2022-08-01T05:11:56;4.87;;;4.47;;
1799;SDS011;919;48.274;12.292;2022-08-01T05:14:24;4.20;;;3.83;;
1799;SDS011;919;48.274;12.292;2022-08-01T05:16:51;4.17;;;3.77;;
1799;SDS011;919;48.274;12.292;2022-08-01T05:19:18;3.73;;;2.97;;
1799;SDS011;919;48.274;12.292;2022-08-01T05:21:46;6.37;;;3.23;;
1799;SDS011;919;48.274;12.292;2022-08-01T05:24:13;4.30;;;3.90;;
1799;SDS011;919;48.274;12.292;2022-08-01T05:26:40;5.63;;;3.10;;
1799;SDS011;919;48.274;12.292;2022-08-01T05:29:06;4.03;;;3.63;;
1799;SDS011;919;48.274;12.292;2022-08-01T05:31:33;3.80;;;3.50;;
1799;SDS011;919;48.274;12.292;2022-08-01T05:34:00;3.50;;;3.10;;
1799;SDS011;919;48.274;12.292;2022-08-01T05:36:27;3.73;;;3.17;;
1799;SDS011;919;48.274;12.292;2022-08-01T05:38:55;3.67;;;3.37;;
1799;SDS011;919;48.274;12.292;2022-08-01T05:41:22;3.40;;;3.10;;
1799;SDS011;919;48.274;12.292;2022-08-01T05:43:49;3.60;;;3.30;;
1799;SDS011;919;48.274;12.292;2022-08-01T05:46:15;3.40;;;3.10;;
1799;SDS011;919;48.274;12.292;2022-08-01T05:48:42;8.10;;;4.70;;
1799;SDS011;919;48.274;12.292;2022-08-01T05:51:09;4.40;;;4.07;;
1799;SDS011;919;48.274;12.292;2022-08-01T05:53:36;4.23;;;3.90;;
1799;SDS011;919;48.274;12.292;2022-08-01T05:56:04;3.80;;;3.50;;
1799;SDS011;919;48.274;12.292;2022-08-01T05:58:31;3.33;;;3.13;;
1799;SDS011;919;48.274;12.292;2022-08-01T06:00:58;3.40;;;3.20;;
1799;SDS011;919;48.274;12.292;2022-08-01T06:03:24;3.97;;;3.67;;
1799;SDS011;919;48.274;12.292;2022-08-01T06:05:51;4.00;;;3.70;;
1799;SDS011;919;48.274;12.292;2022-08-01T06:08:18;3.33;;;3.10;;
1799;SDS011;919;48.274;12.292;2022-08-01T06:10:45;4.23;;;3.93;;
1799;SDS011;919;48.274;12.292;2022-08-01T06:13:13;3.17;;;2.87;;
1799;SDS011;919;48.274;12.292;2022-08-01T06:15:40;4.57;;;3.43;;
1799;SDS011;919;48.274;12.292;2022-08-01T06:18:06;2.97;;;2.77;;
1799;SDS011;919;48.274;12.292;2022-08-01T06:20:33;3.17;;;2.97;;
1799;SDS011;919;48.274;12.292;2022-08-01T06:23:00;3.80;;;3.50;;
1799;SDS011;919;48.274;12.292;2022-08-01T06:25:26;4.73;;;4.37;;
1799;SDS011;919;48.274;12.292;2022-08-01T06:27:53;5.87;;;5.37;;
1799;SDS011;919;48.274;12.292;2022-08-01T06:30:21;4.33;;;4.03;;
1799;SDS011;919;48.274;12.292;2022-08-01T06:32:48;4.83;;;3.30;;
1799;SDS011;919;48.274;12.292;2022-08-01T06:35:15;3.67;;;3.37;;
1799;SDS011;919;48.274;12.292;2022-08-01T06:37:42;5.27;;;4.87;;
1799;SDS011;919;48.274;12.292;2022-08-01T06:40:10;3.93;;;3.63;;
1799;SDS011;919;48.274;12.292;2022-08-01T06:42:37;4.43;;;3.50;;
1799;SDS011;919;48.274;12.292;2022-08-01T06:45:04;3.57;;;3.27;;
1799;SDS011;919;48.274;12.292;2022-08-01T06:47:34;5.37;;;4.90;;
1799;SDS011;919;48.274;12.292;2022-08-01T06:50:01;4.13;;;3.83;;
1799;SDS011;919;48.274;12.292;2022-08-01T06:52:29;4.60;;;4.13;;
1799;SDS011;919;48.274;12.292;2022-08-01T06:54:55;3.03;;;2.83;;
1799;SDS011;919;48.274;12.292;2022-08-01T06:57:22;3.47;;;3.20;;
1799;SDS011;919;48.274;12.292;2022-08-01T06:59:49;5.47;;;4.97;;
1799;SDS011;919;48.274;12.292;2022-08-01T07:02:16;7.03;;;6.37;;
1799;SDS011;919;48.274;12.292;2022-08-01T07:04:44;3.83;;;3.53;;
1799;SDS011;919;48.274;12.292;2022-08-01T07:07:11;5.27;;;4.87;;
1799;SDS011;919;48.274;12.292;2022-08-01T07:09:37;3.80;;;3.50;;
1799;SDS011;919;48.274;12.292;2022-08-01T07:12:06;3.30;;;3.10;;
1799;SDS011;919;48.274;12.292;2022-08-01T07:14:32;3.67;;;3.47;;
1799;SDS011;919;48.274;12.292;2022-08-01T07:16:59;3.53;;;3.33;;
1799;SDS011;919;48.274;12.292;2022-08-01T07:19:26;3.60;;;3.33;;
1799;SDS011;919;48.274;12.292;2022-08-01T07:21:54;2.90;;;2.70;;
1799;SDS011;919;48.274;12.292;2022-08-01T07:24:21;3.00;;;2.80;;
1799;SDS011;919;48.274;12.292;2022-08-01T07:26:48;2.90;;;2.70;;
1799;SDS011;919;48.274;12.292;2022-08-01T07:29:15;3.70;;;3.40;;
1799;SDS011;919;48.274;12.292;2022-08-01T07:31:42;4.30;;;3.20;;
1799;SDS011;919;48.274;12.292;2022-08-01T07:34:08;3.53;;;3.23;;
1799;SDS011;919;48.274;12.292;2022-08-01T07:36:35;3.57;;;3.27;;
1799;SDS011;919;48.274;12.292;2022-08-01T07:39:03;3.10;;;2.90;;
1799;SDS011;919;48.274;12.292;2022-08-01T07:41:30;3.10;;;2.90;;
1799;SDS011;919;48.274;12.292;2022-08-01T07:43:57;4.23;;;3.00;;
1799;SDS011;919;48.274;12.292;2022-08-01T07:46:23;2.70;;;2.50;;
1799;SDS011;919;48.274;12.292;2022-08-01T07:48:50;3.17;;;2.87;;
1799;SDS011;919;48.274;12.292;2022-08-01T07:51:17;2.97;;;2.77;;
1799;SDS011;919;48.274;12.292;2022-08-01T07:53:44;3.10;;;2.90;;
1799;SDS011;919;48.274;12.292;2022-08-01T07:56:12;3.43;;;3.10;;
1799;SDS011;919;48.274;12.292;2022-08-01T07:58:38;4.80;;;2.80;;
1799;SDS011;919;48.274;12.292;2022-08-01T08:01:05;3.17;;;2.97;;
1799;SDS011;919;48.274;12.292;2022-08-01T08:03:32;4.53;;;3.60;;
1799;SDS011;919;48.274;12.292;2022-08-01T08:05:58;4.07;;;3.77;;
1799;SDS011;919;48.274;12.292;2022-08-01T08:08:25;3.30;;;3.10;;
1799;SDS011;919;48.274;12.292;2022-08-01T08:10:53;3.03;;;2.83;;
1799;SDS011;919;48.274;12.292;2022-08-01T08:13:21;3.63;;;3.13;;
1799;SDS011;919;48.274;12.292;2022-08-01T08:15:48;3.50;;;3.17;;
1799;SDS011;919;48.274;12.292;2022-08-01T08:18:14;3.23;;;3.03;;
1799;SDS011;919;48.274;12.292;2022-08-01T08:20:41;3.67;;;3.37;;
1799;SDS011;919;48.274;12.292;2022-08-01T08:23:08;3.40;;;3.10;;
1799;SDS011;919;48.274;12.292;2022-08-01T08:25:49;4.17;;;3.83;;
1799;SDS011;919;48.274;12.292;2022-08-01T08:28:15;3.53;;;3.33;;
1799;SDS011;919;48.274;12.292;2022-08-01T08:30:43;3.30;;;3.10;;
1799;SDS011;919;48.274;12.292;2022-08-01T08:33:11;3.10;;;2.90;;
1799;SDS011;919;48.274;12.292;2022-08-01T08:35:38;5.53;;;3.20;;
1799;SDS011;919;48.274;12.292;2022-08-01T08:38:06;3.50;;;3.30;;
1799;SDS011;919;48.274;12.292;2022-08-01T08:40:32;2.87;;;2.67;;
1799;SDS011;919;48.274;12.292;2022-08-01T08:43:03;3.10;;;2.83;;
1799;SDS011;919;48.274;12.292;2022-08-01T08:45:31;4.73;;;3.13;;
1799;SDS011;919;48.274;12.292;2022-08-01T08:47:59;3.20;;;3.00;;
1799;SDS011;919;48.274;12.292;2022-08-01T08:50:27;3.13;;;2.93;;
1799;SDS011;919;48.274;12.292;2022-08-01T08:52:54;3.87;;;2.93;;
1799;SDS011;919;48.274;12.292;2022-08-01T08:55:22;3.30;;;3.00;;
1799;SDS011;919;48.274;12.292;2022-08-01T08:57:49;3.20;;;2.97;;
1799;SDS011;919;48.274;12.292;2022-08-01T09:00:17;4.77;;;2.77;;
1799;SDS011;919;48.274;12.292;2022-08-01T09:02:45;4.43;;;3.67;;
1799;SDS011;919;48.274;12.292;2022-08-01T09:05:15;3.30;;;3.10;;
1799;SDS011;919;48.274;12.292;2022-08-01T09:07:43;3.10;;;2.80;;
1799;SDS011;919;48.274;12.292;2022-08-01T09:10:10;3.03;;;2.80;;
1799;SDS011;919;48.274;12.292;2022-08-01T09:12:37;2.77;;;2.57;;
1799;SDS011;919;48.274;12.292;2022-08-01T09:15:04;2.93;;;2.73;;
1799;SDS011;919;48.274;12.292;2022-08-01T09:17:38;3.90;;;2.97;;
1799;SDS011;919;48.274;12.292;2022-08-01T09:20:06;3.30;;;3.10;;
1799;SDS011;919;48.274;12.292;2022-08-01T09:22:35;3.17;;;2.97;;
1799;SDS011;919;48.274;12.292;2022-08-01T09:25:04;5.20;;;2.90;;
1799;SDS011;919;48.274;12.292;2022-08-01T09:27:32;3.10;;;2.80;;
1799;SDS011;919;48.274;12.292;2022-08-01T09:30:07;3.93;;;3.00;;
1799;SDS011;919;48.274;12.292;2022-08-01T09:32:35;4.83;;;3.30;;
1799;SDS011;919;48.274;12.292;2022-08-01T09:35:22;3.93;;;3.37;;
1799;SDS011;919;48.274;12.292;2022-08-01T09:37:51;3.77;;;3.47;;
1799;SDS011;919;48.274;12.292;2022-08-01T09:40:21;3.90;;;3.60;;
1799;SDS011;919;48.274;12.292;2022-08-01T09:42:48;3.73;;;3.33;;
1799;SDS011;919;48.274;12.292;2022-08-01T09:45:31;3.40;;;3.13;;
1799;SDS011;919;48.274;12.292;2022-08-01T09:47:59;3.33;;;3.13;;
1799;SDS011;919;48.274;12.292;2022-08-01T09:50:38;3.60;;;3.30;;
1799;SDS011;919;48.274;12.292;2022-08-01T09:53:07;3.37;;;3.10;;
1799;SDS011;919;48.274;12.292;2022-08-01T09:55:34;3.57;;;3.23;;
1799;SDS011;919;48.274;12.292;2022-08-01T09:58:01;3.50;;;3.30;;
1799;SDS011;919;48.274;12.292;2022-08-01T10:00:29;3.07;;;2.80;;
1799;SDS011;919;48.274;12.292;2022-08-01T10:02:57;3.50;;;3.30;;
1799;SDS011;919;48.274;12.292;2022-08-01T10:05:30;3.80;;;3.57;;
1799;SDS011;919;48.274;12.292;2022-08-01T10:07:58;3.50;;;3.20;;
1799;SDS011;919;48.274;12.292;2022-08-01T10:10:28;3.00;;;2.80;;
1799;SDS011;919;48.274;12.292;2022-08-01T10:12:56;5.77;;;3.37;;
1799;SDS011;919;48.274;12.292;2022-08-01T10:15:24;3.50;;;3.00;;
1799;SDS011;919;48.274;12.292;2022-08-01T10:17:53;3.27;;;3.07;;
1799;SDS011;919;48.274;12.292;2022-08-01T10:20:22;3.17;;;2.90;;
1799;SDS011;919;48.274;12.292;2022-08-01T10:22:50;3.27;;;2.80;;
1799;SDS011;919;48.274;12.292;2022-08-01T10:25:19;2.97;;;2.77;;
1799;SDS011;919;48.274;12.292;2022-08-01T10:27:49;3.57;;;3.37;;
1799;SDS011;919;48.274;12.292;2022-08-01T10:30:20;3.83;;;3.53;;
1799;SDS011;919;48.274;12.292;2022-08-01T10:32:47;3.30;;;3.10;;
1799;SDS011;919;48.274;12.292;2022-08-01T10:35:14;2.87;;;2.60;;
1799;SDS011;919;48.274;12.292;2022-08-01T10:37:43;4.60;;;3.00;;
1799;SDS011;919;48.274;12.292;2022-08-01T10:40:12;2.90;;;2.70;;
1799;SDS011;919;48.274;12.292;2022-08-01T10:42:39;5.97;;;2.70;;
1799;SDS011;919;48.274;12.292;2022-08-01T10:45:09;3.07;;;2.77;;
1799;SDS011;919;48.274;12.292;2022-08-01T10:47:38;3.10;;;2.87;;
1799;SDS011;919;48.274;12.292;2022-08-01T10:50:11;2.83;;;2.63;;
1799;SDS011;919;48.274;12.292;2022-08-01T10:52:47;3.20;;;3.00;;
1799;SDS011;919;48.274;12.292;2022-08-01T10:55:29;2.80;;;2.60;;
1799;SDS011;919;48.274;12.292;2022-08-01T10:58:12;3.00;;;2.80;;
1799;SDS011;919;48.274;12.292;2022-08-01T11:00:40;2.90;;;2.70;;
1799;SDS011;919;48.274;12.292;2022-08-01T11:03:07;3.67;;;3.47;;
1799;SDS011;919;48.274;12.292;2022-08-01T11:05:34;2.83;;;2.70;;
1799;SDS011;919;48.274;12.292;2022-08-01T11:08:03;3.13;;;2.83;;
1799;SDS011;919;48.274;12.292;2022-08-01T11:10:36;3.13;;;2.93;;
1799;SDS011;919;48.274;12.292;2022-08-01T11:13:04;2.57;;;2.37;;
1799;SDS011;919;48.274;12.292;2022-08-01T11:15:32;2.93;;;2.73;;
1799;SDS011;919;48.274;12.292;2022-08-01T11:18:01;2.80;;;2.60;;
1799;SDS011;919;48.274;12.292;2022-08-01T11:20:29;3.03;;;2.73;;
1799;SDS011;919;48.274;12.292;2022-08-01T11:26:09;2.60;;;2.47;;
1799;SDS011;919;48.274;12.292;2022-08-01T11:28:40;3.00;;;2.80;;
1799;SDS011;919;48.274;12.292;2022-08-01T11:31:28;2.90;;;2.70;;
1799;SDS011;919;48.274;12.292;2022-08-01T11:33:57;2.77;;;2.57;;
1799;SDS011;919;48.274;12.292;2022-08-01T11:36:25;2.40;;;2.20;;
1799;SDS011;919;48.274;12.292;2022-08-01T11:39:11;2.60;;;2.40;;
1799;SDS011;919;48.274;12.292;2022-08-01T11:41:40;4.23;;;2.67;;
1799;SDS011;919;48.274;12.292;2022-08-01T11:44:08;2.97;;;2.77;;
1799;SDS011;919;48.274;12.292;2022-08-01T11:46:50;3.30;;;3.10;;
1799;SDS011;919;48.274;12.292;2022-08-01T11:49:27;2.60;;;2.40;;
1799;SDS011;919;48.274;12.292;2022-08-01T11:52:11;2.97;;;2.77;;
1799;SDS011;919;48.274;12.292;2022-08-01T11:54:41;2.50;;;2.30;;
1799;SDS011;919;48.274;12.292;2022-08-01T11:57:09;2.63;;;2.53;;
1799;SDS011;919;48.274;12.292;2022-08-01T11:59:38;2.90;;;2.70;;
1799;SDS011;919;48.274;12.292;2022-08-01T12:02:20;2.57;;;2.47;;
1799;SDS011;919;48.274;12.292;2022-08-01T12:04:51;2.57;;;2.40;;
1799;SDS011;919;48.274;12.292;2022-08-01T12:07:20;3.17;;;2.83;;
1799;SDS011;919;48.274;12.292;2022-08-01T12:09:47;2.00;;;1.90;;
1799;SDS011;919;48.274;12.292;2022-08-01T12:12:22;2.23;;;2.13;;
1799;SDS011;919;48.274;12.292;2022-08-01T12:14:52;2.90;;;2.57;;
1799;SDS011;919;48.274;12.292;2022-08-01T12:17:26;2.47;;;2.20;;
1799;SDS011;919;48.274;12.292;2022-08-01T12:19:55;2.27;;;2.07;;
1799;SDS011;919;48.274;12.292;2022-08-01T12:22:23;2.13;;;2.03;;
1799;SDS011;919;48.274;12.292;2022-08-01T12:24:51;2.77;;;2.57;;
1799;SDS011;919;48.274;12.292;2022-08-01T12:27:24;2.13;;;1.93;;
1799;SDS011;919;48.274;12.292;2022-08-01T12:29:52;5.00;;;2.00;;
1799;SDS011;919;48.274;12.292;2022-08-01T12:32:23;2.07;;;1.67;;
1799;SDS011;919;48.274;12.292;2022-08-01T12:34:52;1.90;;;1.80;;
1799;SDS011;919;48.274;12.292;2022-08-01T12:37:21;2.40;;;2.20;;
1799;SDS011;919;48.274;12.292;2022-08-01T12:39:48;5.13;;;1.70;;
1799;SDS011;919;48.274;12.292;2022-08-01T12:42:15;2.30;;;2.20;;
1799;SDS011;919;48.274;12.292;2022-08-01T12:44:43;4.80;;;2.60;;
1799;SDS011;919;48.274;12.292;2022-08-01T12:47:13;4.30;;;1.80;;
1799;SDS011;919;48.274;12.292;2022-08-01T12:49:41;3.03;;;1.90;;
1799;SDS011;919;48.274;12.292;2022-08-01T12:52:09;2.80;;;2.17;;
1799;SDS011;919;48.274;12.292;2022-08-01T12:57:27;2.00;;;1.90;;
1799;SDS011;919;48.274;12.292;2022-08-01T13:00:04;1.77;;;1.67;;
1799;SDS011;919;48.274;12.292;2022-08-01T13:02:36;2.50;;;1.80;;
1799;SDS011;919;48.274;12.292;2022-08-01T13:05:04;4.20;;;1.67;;
1799;SDS011;919;48.274;12.292;2022-08-01T13:07:39;1.73;;;1.63;;
1799;SDS011;919;48.274;12.292;2022-08-01T13:10:09;1.93;;;1.73;;
1799;SDS011;919;48.274;12.292;2022-08-01T13:12:36;1.60;;;1.50;;
1799;SDS011;919;48.274;12.292;2022-08-01T13:15:15;2.30;;;2.20;;
1799;SDS011;919;48.274;12.292;2022-08-01T13:17:43;2.63;;;1.77;;
1799;SDS011;919;48.274;12.292;2022-08-01T13:20:10;2.40;;;2.10;;
1799;SDS011;919;48.274;12.292;2022-08-01T13:22:48;1.60;;;1.47;;
1799;SDS011;919;48.274;12.292;2022-08-01T13:25:16;1.70;;;1.60;;
1799;SDS011;919;48.274;12.292;2022-08-01T13:27:42;1.47;;;1.37;;
1799;SDS011;919;48.274;12.292;2022-08-01T13:30:10;5.90;;;1.43;;
1799;SDS011;919;48.274;12.292;2022-08-01T13:32:37;1.43;;;1.33;;
1799;SDS011;919;48.274;12.292;2022-08-01T13:35:05;1.77;;;1.67;;
1799;SDS011;919;48.274;12.292;2022-08-01T13:37:33;3.27;;;1.60;;
1799;SDS011;919;48.274;12.292;2022-08-01T13:40:00;1.50;;;1.40;;
1799;SDS011;919;48.274;12.292;2022-08-01T13:42:28;1.77;;;1.17;;
1799;SDS011;919;48.274;12.292;2022-08-01T13:44:55;1.60;;;1.50;;
1799;SDS011;919;48.274;12.292;2022-08-01T13:47:21;1.53;;;1.43;;
1799;SDS011;919;48.274;12.292;2022-08-01T13:49:48;1.70;;;1.60;;
1799;SDS011;919;48.274;12.292;2022-08-01T13:52:15;1.50;;;1.40;;
1799;SDS011;919;48.274;12.292;2022-08-01T13:54:42;1.40;;;1.30;;
1799;SDS011;919;48.274;12.292;2022-08-01T13:57:08;3.60;;;1.97;;
1799;SDS011;919;48.274;12.292;2022-08-01T13:59:37;1.63;;;1.53;;
1799;SDS011;919;48.274;12.292;2022-08-01T14:02:03;2.00;;;1.80;;
1799;SDS011;919;48.274;12.292;2022-08-01T14:04:30;2.13;;;2.00;;
1799;SDS011;919;48.274;12.292;2022-08-01T14:06:57;2.23;;;1.97;;
1799;SDS011;919;48.274;12.292;2022-08-01T14:09:23;1.77;;;1.67;;
1799;SDS011;919;48.274;12.292;2022-08-01T14:11:50;2.43;;;1.63;;
1799;SDS011;919;48.274;12.292;2022-08-01T14:14:17;2.00;;;1.90;;
1799;SDS011;919;48.274;12.292;2022-08-01T14:16:45;1.40;;;1.30;;
1799;SDS011;919;48.274;12.292;2022-08-01T14:19:11;1.60;;;1.43;;
1799;SDS011;919;48.274;12.292;2022-08-01T14:21:40;1.33;;;1.23;;
1799;SDS011;919;48.274;12.292;2022-08-01T14:24:07;2.30;;;1.90;;
1799;SDS011;919;48.274;12.292;2022-08-01T14:26:34;1.90;;;1.80;;
1799;SDS011;919;48.274;12.292;2022-08-01T14:29:01;4.30;;;1.77;;
1799;SDS011;919;48.274;12.292;2022-08-01T14:31:28;1.70;;;1.60;;
1799;SDS011;919;48.274;12.292;2022-08-01T14:33:56;2.47;;;1.90;;
1799;SDS011;919;48.274;12.292;2022-08-01T14:36:23;1.93;;;1.77;;
1799;SDS011;919;48.274;12.292;2022-08-01T14:38:50;2.13;;;1.50;;
1799;SDS011;919;48.274;12.292;2022-08-01T14:41:16;1.63;;;1.53;;
1799;SDS011;919;48.274;12.292;2022-08-01T14:43:43;2.27;;;1.70;;
1799;SDS011;919;48.274;12.292;2022-08-01T14:46:10;1.40;;;1.30;;
1799;SDS011;919;48.274;12.292;2022-08-01T14:48:38;1.60;;;1.50;;
1799;SDS011;919;48.274;12.292;2022-08-01T14:51:06;3.50;;;1.63;;
1799;SDS011;919;48.274;12.292;2022-08-01T14:53:33;2.43;;;1.70;;
1799;SDS011;919;48.274;12.292;2022-08-01T14:56:01;1.90;;;1.80;;
1799;SDS011;919;48.274;12.292;2022-08-01T14:58:28;1.87;;;1.77;;
1799;SDS011;919;48.274;12.292;2022-08-01T15:00:55;3.33;;;1.63;;
1799;SDS011;919;48.274;12.292;2022-08-01T15:03:22;1.97;;;1.80;;
1799;SDS011;919;48.274;12.292;2022-08-01T15:05:49;2.00;;;1.80;;
1799;SDS011;919;48.274;12.292;2022-08-01T15:08:17;2.00;;;1.73;;
1799;SDS011;919;48.274;12.292;2022-08-01T15:10:44;1.70;;;1.60;;
1799;SDS011;919;48.274;12.292;2022-08-01T15:13:11;2.30;;;2.10;;
1799;SDS011;919;48.274;12.292;2022-08-01T15:15:37;1.50;;;1.40;;
1799;SDS011;919;48.274;12.292;2022-08-01T15:18:04;1.60;;;1.50;;
1799;SDS011;919;48.274;12.292;2022-08-01T15:20:31;1.90;;;1.57;;
1799;SDS011;919;48.274;12.292;2022-08-01T15:22:58;1.80;;;1.70;;
1799;SDS011;919;48.274;12.292;2022-08-01T15:25:26;1.40;;;1.23;;
1799;SDS011;919;48.274;12.292;2022-08-01T15:27:54;1.90;;;1.67;;
1799;SDS011;919;48.274;12.292;2022-08-01T15:30:20;1.57;;;1.47;;
1799;SDS011;919;48.274;12.292;2022-08-01T15:32:47;1.60;;;1.50;;